Time;durP1;ratioP1;P1;durP2;ratioP2;P2;SDS_P1;SDS_P2;PMS_P1;PMS_P2;Temp;Humidity;BMP_temperature;BMP_pressure;BME280_temperature;BME280_humidity;BME280_pressure;Samples;Min_cycle;Max_cycle;Signal;HPM_P1;HPM_P2
2021/12/03 00:00:54;;;;;;;;;;;-1.00;99.90;;;;;;5051199;28;19909;-77
2021/12/03 00:03:19;;;;;;;;;;;-1.10;99.90;;;;;;5051171;28;19916;-76
2021/12/03 00:05:45;;;;;;;;;;;-1.10;99.90;;;;;;5051561;28;19909;-77
2021/12/03 00:08:11;;;;;;;;;;;-1.20;99.90;;;;;;5051790;28;19932;-77
2021/12/03 00:10:38;;;;;;;;;;;-1.30;99.90;;;;;;5051501;28;19909;-77
2021/12/03 00:13:04;;;;;;;;;;;-1.30;99.90;;;;;;5050971;28;20028;-77
2021/12/03 00:15:30;;;;;;;;;;;-1.20;99.90;;;;;;5051146;28;19909;-76
2021/12/03 00:17:56;;;;;;;;;;;-1.10;99.90;;;;;;5051260;28;19908;-77
2021/12/03 00:20:23;;;;;;;;;;;-1.10;99.90;;;;;;5049993;28;19916;-77
2021/12/03 00:22:50;;;;;;;;;;;-1.10;99.90;;;;;;5051271;28;20007;-76
2021/12/03 00:25:16;;;;;;;;;;;-1.20;99.90;;;;;;5048902;28;19908;-76
2021/12/03 00:27:41;;;;;;;;;;;-1.20;99.90;;;;;;5049870;28;19939;-77
2021/12/03 00:30:08;;;;;;;;;;;-1.10;99.90;;;;;;5046997;28;20282;-77
2021/12/03 00:32:34;;;;;;;;;;;-1.00;99.90;;;;;;5048017;28;20016;-76
2021/12/03 00:34:59;;;;;;;;;;;-0.90;99.90;;;;;;5050569;28;20405;-76
2021/12/03 00:37:25;;;;;;;;;;;-0.90;99.90;;;;;;5051202;28;20499;-77
2021/12/03 00:39:51;;;;;;;;;;;-0.90;99.90;;;;;;5050539;28;19909;-77
2021/12/03 00:42:18;;;;;;;;;;;-0.90;99.90;;;;;;5050734;28;20282;-76
2021/12/03 00:44:45;;;;;;;;;;;-0.80;99.90;;;;;;5050539;28;19912;-76
2021/12/03 00:47:11;;;;;;;;;;;-0.80;99.90;;;;;;5051172;28;19919;-77
2021/12/03 00:49:39;;;;;;;;;;;-0.70;99.90;;;;;;5048758;28;19912;-76
2021/12/03 00:52:05;;;;;;;;;;;-0.80;99.90;;;;;;5046944;28;19916;-76
2021/12/03 00:54:30;;;;;;;;;;;-0.80;99.90;;;;;;5049107;28;19912;-76
2021/12/03 00:56:56;;;;;;;;;;;-0.90;99.90;;;;;;5054502;28;19915;-77
2021/12/03 00:59:21;;;;;;;;;;;-0.80;99.90;;;;;;5054908;28;20254;-76
2021/12/03 01:01:47;;;;;;;;;;;-0.80;99.90;;;;;;5054985;28;19919;-77
2021/12/03 01:04:12;;;;;;;;;;;-0.70;99.90;;;;;;5054783;28;20377;-76
2021/12/03 01:06:38;;;;;;;;;;;-0.60;99.90;;;;;;5055007;28;19908;-76
2021/12/03 01:09:03;;;;;;;;;;;-0.60;99.90;;;;;;5055671;28;19962;-76
2021/12/03 01:11:29;;;;;;;;;;;-0.60;99.90;;;;;;5054129;28;19950;-76
2021/12/03 01:13:57;;;;;;;;;;;-0.60;99.90;;;;;;5053800;28;20012;-77
2021/12/03 01:16:22;;;;;;;;;;;-0.70;99.90;;;;;;5055183;28;19908;-76
2021/12/03 01:18:48;;;;;;;;;;;-0.70;99.90;;;;;;5056064;28;19962;-76
2021/12/03 01:21:14;;;;;;;;;;;-0.60;99.90;;;;;;5055638;28;19908;-76
2021/12/03 01:23:40;;;;;;;;;;;-0.60;99.90;;;;;;5046818;28;20362;-76
2021/12/03 01:26:05;;;;;;;;;;;-0.60;99.90;;;;;;5054072;28;19961;-76
2021/12/03 01:28:31;;;;;;;;;;;-0.60;99.90;;;;;;5054498;28;20003;-76
2021/12/03 01:30:58;;;;;;;;;;;-0.60;99.90;;;;;;5054005;28;20594;-76
2021/12/03 01:33:24;;;;;;;;;;;-0.60;99.90;;;;;;5054318;28;20002;-77
2021/12/03 01:35:49;;;;;;;;;;;-0.60;99.90;;;;;;5054817;28;19915;-76
2021/12/03 01:38:15;;;;;;;;;;;-0.50;99.90;;;;;;5054550;28;20370;-76
2021/12/03 01:40:41;;;;;;;;;;;-0.50;99.90;;;;;;5054441;28;20377;-76
2021/12/03 01:43:08;;;;;;;;;;;-0.50;99.90;;;;;;5054026;28;19920;-76
2021/12/03 01:45:35;;;;;;;;;;;-0.60;99.90;;;;;;5053198;28;19928;-76
2021/12/03 01:48:01;;;;;;;;;;;-0.60;99.90;;;;;;5054350;28;19909;-76
2021/12/03 01:50:31;;;;;;;;;;;-0.70;99.90;;;;;;5054381;28;20316;-76
2021/12/03 01:52:57;;;;;;;;;;;-0.70;99.90;;;;;;5053927;28;19917;-76
2021/12/03 01:55:23;;;;;;;;;;;-0.70;99.90;;;;;;5054025;28;19909;-76
2021/12/03 01:57:49;;;;;;;;;;;-0.80;99.90;;;;;;5054389;28;20004;-76
2021/12/03 02:00:34;;;;;;;;;;;-0.80;99.90;;;;;;5052701;28;19954;-76
2021/12/03 02:03:00;;;;;;;;;;;-0.80;99.90;;;;;;5053288;28;19952;-76
2021/12/03 02:05:26;;;;;;;;;;;-0.90;99.90;;;;;;5054275;28;19937;-76
2021/12/03 02:07:52;;;;;;;;;;;-0.90;99.90;;;;;;5053893;28;19909;-76
2021/12/03 02:10:19;;;;;;;;;;;-0.90;99.90;;;;;;5053898;28;20362;-76
2021/12/03 02:12:45;;;;;;;;;;;-0.90;99.90;;;;;;5052462;28;19932;-76
2021/12/03 02:15:11;;;;;;;;;;;-0.80;99.90;;;;;;5053519;28;19909;-76
2021/12/03 02:17:36;;;;;;;;;;;-0.80;99.90;;;;;;5053943;28;19909;-76
2021/12/03 02:20:03;;;;;;;;;;;-0.70;99.90;;;;;;5053701;28;19980;-76
2021/12/03 02:22:28;;;;;;;;;;;-0.70;99.90;;;;;;5053439;28;19932;-76
2021/12/03 02:24:54;;;;;;;;;;;-0.60;99.90;;;;;;5053555;28;20361;-76
2021/12/03 02:27:19;;;;;;;;;;;-0.70;99.90;;;;;;5052671;28;20186;-76
2021/12/03 02:29:45;;;;;;;;;;;-0.70;99.90;;;;;;5053467;28;20331;-76
2021/12/03 02:32:10;;;;;;;;;;;-0.70;99.90;;;;;;5053438;28;19952;-76
2021/12/03 02:34:36;;;;;;;;;;;-0.60;99.90;;;;;;5051658;28;19999;-76
2021/12/03 02:37:03;;;;;;;;;;;-0.60;99.90;;;;;;5052206;28;19909;-76
2021/12/03 02:39:28;;;;;;;;;;;-0.60;99.90;;;;;;5053804;28;19909;-76
2021/12/03 02:41:54;;;;;;;;;;;-0.50;99.90;;;;;;5052469;28;20293;-76
2021/12/03 02:44:19;;;;;;;;;;;-0.50;99.90;;;;;;5051461;28;20012;-76
2021/12/03 02:46:45;;;;;;;;;;;-0.60;99.90;;;;;;5051847;28;19984;-76
2021/12/03 02:49:15;;;;;;;;;;;-0.50;99.90;;;;;;5052553;28;19913;-76
2021/12/03 02:51:41;;;;;;;;;;;-0.60;99.90;;;;;;5052670;28;19908;-76
2021/12/03 02:54:07;;;;;;;;;;;-0.60;99.90;;;;;;5052731;28;20224;-76
2021/12/03 02:56:32;;;;;;;;;;;-0.60;99.90;;;;;;5053174;28;19913;-76
2021/12/03 02:58:58;;;;;;;;;;;-0.60;99.90;;;;;;5053337;28;20324;-76
2021/12/03 03:01:23;;;;;;;;;;;-0.70;99.90;;;;;;5052818;28;19986;-76
2021/12/03 03:03:49;;;;;;;;;;;-0.70;99.90;;;;;;5052678;28;19909;-76
2021/12/03 03:06:14;;;;;;;;;;;-0.70;99.90;;;;;;5052738;28;19909;-76
2021/12/03 03:08:42;;;;;;;;;;;-0.70;99.90;;;;;;5053040;28;20001;-76
2021/12/03 03:11:08;;;;;;;;;;;-0.70;99.90;;;;;;5052847;28;20328;-76
2021/12/03 03:13:35;;;;;;;;;;;-0.80;99.90;;;;;;5052292;28;19913;-76
2021/12/03 03:16:00;;;;;;;;;;;-0.80;99.90;;;;;;5052599;28;20388;-76
2021/12/03 03:18:27;;;;;;;;;;;-0.80;99.90;;;;;;5052066;28;20008;-77
2021/12/03 03:20:53;;;;;;;;;;;-0.70;99.90;;;;;;5051876;28;19913;-77
2021/12/03 03:23:19;;;;;;;;;;;-0.70;99.90;;;;;;5052299;28;19909;-76
2021/12/03 03:25:45;;;;;;;;;;;-0.60;99.90;;;;;;5052722;28;19909;-76
2021/12/03 03:28:12;;;;;;;;;;;-0.60;99.90;;;;;;5052293;28;19917;-76
2021/12/03 03:30:38;;;;;;;;;;;-0.60;99.90;;;;;;5052323;28;20003;-76
2021/12/03 03:33:04;;;;;;;;;;;-0.60;99.90;;;;;;5052021;28;19913;-76
2021/12/03 03:35:29;;;;;;;;;;;-0.60;99.90;;;;;;5052244;28;20285;-77
2021/12/03 03:37:55;;;;;;;;;;;-0.60;99.90;;;;;;5052173;28;19909;-77
2021/12/03 03:40:21;;;;;;;;;;;-0.70;99.90;;;;;;5051083;28;20416;-76
2021/12/03 03:42:46;;;;;;;;;;;-0.70;99.90;;;;;;5052073;28;19915;-76
2021/12/03 03:45:13;;;;;;;;;;;-0.70;99.90;;;;;;5051681;28;19943;-77
2021/12/03 03:47:39;;;;;;;;;;;-0.70;99.90;;;;;;5052072;28;20377;-76
2021/12/03 03:50:05;;;;;;;;;;;-0.70;99.90;;;;;;5051543;28;20008;-76
2021/12/03 03:52:31;;;;;;;;;;;-0.60;99.90;;;;;;5051685;28;19963;-76
2021/12/03 03:54:57;;;;;;;;;;;-0.60;99.90;;;;;;5050803;28;19959;-76
2021/12/03 03:57:22;;;;;;;;;;;-0.60;99.90;;;;;;5051595;28;19962;-76
2021/12/03 03:59:48;;;;;;;;;;;-0.60;99.90;;;;;;5051701;28;20308;-76
2021/12/03 04:02:13;;;;;;;;;;;-0.60;99.90;;;;;;5051564;28;20323;-76
2021/12/03 04:04:39;;;;;;;;;;;-0.70;99.90;;;;;;5051224;28;19909;-76
2021/12/03 04:07:05;;;;;;;;;;;-0.60;99.90;;;;;;5051654;28;20316;-76
2021/12/03 04:09:30;;;;;;;;;;;-0.60;99.90;;;;;;5051589;28;19951;-76
2021/12/03 04:11:56;;;;;;;;;;;-0.60;99.90;;;;;;5051487;28;19908;-76
2021/12/03 04:14:21;;;;;;;;;;;-0.60;99.90;;;;;;5050864;28;19920;-76
2021/12/03 04:16:48;;;;;;;;;;;-0.60;99.90;;;;;;5051403;28;19917;-76
2021/12/03 04:19:13;;;;;;;;;;;-0.60;99.90;;;;;;5051475;28;19909;-76
2021/12/03 04:21:39;;;;;;;;;;;-0.70;99.90;;;;;;5051560;28;19915;-76
2021/12/03 04:24:05;;;;;;;;;;;-0.70;99.90;;;;;;5050588;28;19909;-76
2021/12/03 04:26:30;;;;;;;;;;;-0.70;99.90;;;;;;5050684;28;19920;-76
2021/12/03 04:28:56;;;;;;;;;;;-0.70;99.90;;;;;;5051300;28;20366;-76
2021/12/03 04:31:22;;;;;;;;;;;-0.70;99.90;;;;;;5050338;28;19909;-76
2021/12/03 04:33:47;;;;;;;;;;;-0.70;99.90;;;;;;5050791;28;19917;-76
2021/12/03 04:36:13;;;;;;;;;;;-0.70;99.90;;;;;;5051327;28;19921;-76
2021/12/03 04:38:38;;;;;;;;;;;-0.70;99.90;;;;;;5051144;28;19909;-76
2021/12/03 04:41:04;;;;;;;;;;;-0.70;99.90;;;;;;5051063;28;19908;-76
2021/12/03 04:43:30;;;;;;;;;;;-0.70;99.90;;;;;;5050810;28;19909;-76
2021/12/03 04:45:56;;;;;;;;;;;-0.70;99.90;;;;;;5049871;28;19909;-76
2021/12/03 04:48:21;;;;;;;;;;;-0.70;99.90;;;;;;5048999;28;19909;-76
2021/12/03 04:50:47;;;;;;;;;;;-0.80;99.90;;;;;;5049558;28;19909;-76
2021/12/03 04:53:13;;;;;;;;;;;-0.70;99.90;;;;;;5050874;28;19917;-76
2021/12/03 04:55:38;;;;;;;;;;;-0.70;99.90;;;;;;5051382;28;19909;-76
2021/12/03 04:58:04;;;;;;;;;;;-0.70;99.90;;;;;;5051045;28;20274;-76
2021/12/03 05:00:33;;;;;;;;;;;-0.70;99.90;;;;;;5050993;28;19909;-75
2021/12/03 05:03:00;;;;;;;;;;;-0.70;99.90;;;;;;5050367;28;20380;-76
2021/12/03 05:05:30;;;;;;;;;;;-0.70;99.90;;;;;;5050265;28;20357;-76
2021/12/03 05:07:58;;;;;;;;;;;-0.70;99.90;;;;;;5050796;28;20007;-76
2021/12/03 05:10:28;;;;;;;;;;;-0.70;99.90;;;;;;5050880;28;19909;-76
2021/12/03 05:12:59;;;;;;;;;;;-0.70;99.90;;;;;;5050759;28;19916;-76
2021/12/03 05:15:25;;;;;;;;;;;-0.70;99.90;;;;;;5044444;28;19970;-76
2021/12/03 05:17:50;;;;;;;;;;;-0.70;99.90;;;;;;5044432;28;19913;-76
2021/12/03 05:20:16;;;;;;;;;;;-0.70;99.90;;;;;;5050778;28;19915;-76
2021/12/03 05:22:41;;;;;;;;;;;-0.70;99.90;;;;;;5049523;28;19948;-76
2021/12/03 05:25:07;;;;;;;;;;;-0.80;99.90;;;;;;5050500;28;19920;-76
2021/12/03 05:27:33;;;;;;;;;;;-0.80;99.90;;;;;;5049210;28;19917;-76
2021/12/03 05:29:58;;;;;;;;;;;-0.80;99.90;;;;;;5049329;28;19931;-76
2021/12/03 05:32:24;;;;;;;;;;;-0.80;99.90;;;;;;5050489;28;19932;-76
2021/12/03 05:34:50;;;;;;;;;;;-0.80;99.90;;;;;;5050264;28;19913;-76
2021/12/03 05:37:15;;;;;;;;;;;-0.90;99.90;;;;;;5050672;28;19908;-76
2021/12/03 05:39:41;;;;;;;;;;;-0.90;99.90;;;;;;5050575;28;19909;-76
2021/12/03 05:42:07;;;;;;;;;;;-0.90;99.90;;;;;;5052449;28;20370;-76
2021/12/03 05:44:32;;;;;;;;;;;-0.90;99.90;;;;;;5053951;28;19941;-76
2021/12/03 05:46:58;;;;;;;;;;;-0.90;99.90;;;;;;5054442;28;19909;-76
2021/12/03 05:49:24;;;;;;;;;;;-1.00;99.90;;;;;;5054250;28;19908;-76
2021/12/03 05:51:50;;;;;;;;;;;-0.90;99.90;;;;;;5054296;28;19962;-76
2021/12/03 05:54:15;;;;;;;;;;;-0.90;99.90;;;;;;5053815;28;20324;-76
2021/12/03 05:56:41;;;;;;;;;;;-1.00;99.90;;;;;;5054029;28;20377;-76
2021/12/03 05:59:06;;;;;;;;;;;-1.00;99.90;;;;;;5052684;28;19956;-76
2021/12/03 06:01:32;;;;;;;;;;;-1.00;99.90;;;;;;5053492;28;19970;-76
2021/12/03 06:03:57;;;;;;;;;;;-1.00;99.90;;;;;;5053470;28;20385;-76
2021/12/03 06:06:23;;;;;;;;;;;-1.10;99.90;;;;;;5055060;28;19913;-76
2021/12/03 06:08:48;;;;;;;;;;;-1.10;99.90;;;;;;5055247;28;19909;-76
2021/12/03 06:11:14;;;;;;;;;;;-1.20;99.90;;;;;;5054377;28;19920;-76
2021/12/03 06:13:39;;;;;;;;;;;-1.30;99.90;;;;;;5052600;28;19913;-76
2021/12/03 06:16:06;;;;;;;;;;;-1.10;99.90;;;;;;5054517;28;19913;-76
2021/12/03 06:18:32;;;;;;;;;;;-1.10;99.90;;;;;;5054356;28;20389;-76
2021/12/03 06:20:57;;;;;;;;;;;-1.00;99.90;;;;;;5054569;28;19913;-76
2021/12/03 06:23:23;;;;;;;;;;;-1.00;99.90;;;;;;5054405;28;19915;-76
2021/12/03 06:25:48;;;;;;;;;;;-1.00;99.90;;;;;;5053979;28;19909;-76
2021/12/03 06:28:14;;;;;;;;;;;-1.00;99.90;;;;;;5054539;28;19917;-76
2021/12/03 06:30:40;;;;;;;;;;;-1.10;99.90;;;;;;5054056;28;19920;-76
2021/12/03 06:33:06;;;;;;;;;;;-1.00;99.90;;;;;;5053624;28;19908;-76
2021/12/03 06:35:31;;;;;;;;;;;-1.10;99.90;;;;;;5053994;28;20381;-76
2021/12/03 06:37:57;;;;;;;;;;;-1.10;99.90;;;;;;5054115;28;19984;-76
2021/12/03 06:40:24;;;;;;;;;;;-1.10;99.90;;;;;;5053736;28;19912;-75
2021/12/03 06:42:49;;;;;;;;;;;-1.30;99.90;;;;;;5053820;28;19909;-77
2021/12/03 06:45:15;;;;;;;;;;;-1.30;99.90;;;;;;5052356;28;19939;-76
2021/12/03 06:47:41;;;;;;;;;;;-1.50;99.90;;;;;;5053856;28;19915;-75
2021/12/03 06:50:09;;;;;;;;;;;-1.50;99.90;;;;;;5054255;28;20365;-76
2021/12/03 06:52:37;;;;;;;;;;;-1.60;99.90;;;;;;5054007;28;19916;-76
2021/12/03 06:55:04;;;;;;;;;;;-1.60;99.90;;;;;;5053772;28;20435;-76
2021/12/03 06:57:30;;;;;;;;;;;-1.70;99.90;;;;;;5053516;28;19912;-76
2021/12/03 06:59:55;;;;;;;;;;;-1.90;99.90;;;;;;5053765;28;19917;-76
2021/12/03 07:02:21;;;;;;;;;;;-2.00;99.90;;;;;;5054287;28;19916;-76
2021/12/03 07:04:46;;;;;;;;;;;-2.10;99.90;;;;;;5052462;28;19940;-76
2021/12/03 07:07:12;;;;;;;;;;;-2.10;99.90;;;;;;5053748;28;19913;-76
2021/12/03 07:09:38;;;;;;;;;;;-2.10;99.90;;;;;;5053494;28;19913;-76
2021/12/03 07:12:03;;;;;;;;;;;-2.10;99.90;;;;;;5053086;28;19972;-76
2021/12/03 07:14:29;;;;;;;;;;;-2.10;99.90;;;;;;5053062;28;20035;-76
2021/12/03 07:16:54;;;;;;;;;;;-2.20;99.90;;;;;;5053411;28;19982;-76
2021/12/03 07:19:20;;;;;;;;;;;-2.30;99.90;;;;;;5053987;28;19909;-76
2021/12/03 07:21:45;;;;;;;;;;;-2.30;99.90;;;;;;5052806;28;20352;-76
2021/12/03 07:24:11;;;;;;;;;;;-2.40;99.90;;;;;;5050472;28;19955;-76
2021/12/03 07:26:36;;;;;;;;;;;-2.40;99.90;;;;;;5052262;28;19919;-76
2021/12/03 07:29:02;;;;;;;;;;;-2.30;99.90;;;;;;5051832;28;20362;-76
2021/12/03 07:31:28;;;;;;;;;;;-2.30;99.90;;;;;;5053048;28;20250;-76
2021/12/03 07:33:55;;;;;;;;;;;-2.30;99.90;;;;;;5056006;28;19924;-75
2021/12/03 07:36:21;;;;;;;;;;;-2.20;99.90;;;;;;5057858;28;20361;-76
2021/12/03 07:38:46;;;;;;;;;;;-2.10;99.90;;;;;;5056667;28;19909;-76
2021/12/03 07:41:12;;;;;;;;;;;-2.20;99.90;;;;;;5058225;28;19913;-76
2021/12/03 07:43:37;;;;;;;;;;;-2.30;99.90;;;;;;5056866;28;19928;-76
2021/12/03 07:46:03;;;;;;;;;;;-2.30;99.90;;;;;;5057464;28;19909;-76
2021/12/03 07:48:29;;;;;;;;;;;-2.30;99.90;;;;;;5058423;28;19916;-75
2021/12/03 07:50:56;;;;;;;;;;;-2.40;99.90;;;;;;5057011;28;20293;-76
2021/12/03 07:53:22;;;;;;;;;;;-2.40;99.90;;;;;;5055441;28;20119;-75
2021/12/03 07:55:49;;;;;;;;;;;-2.40;99.90;;;;;;5057375;28;20096;-76
2021/12/03 07:58:15;;;;;;;;;;;-2.40;99.90;;;;;;5054949;28;19909;-76
2021/12/03 08:00:41;;;;;;;;;;;-2.20;99.90;;;;;;5052577;28;20111;-75
2021/12/03 08:03:06;;;;;;;;;;;-2.10;99.90;;;;;;5052128;28;19909;-75
2021/12/03 08:05:32;;;;;;;;;;;-2.20;99.90;;;;;;5052386;28;19978;-75
2021/12/03 08:07:59;;;;;;;;;;;-2.20;99.90;;;;;;5052419;28;19935;-75
2021/12/03 08:10:25;;;;;;;;;;;-2.10;99.90;;;;;;5052511;28;20094;-76
2021/12/03 08:12:50;;;;;;;;;;;-1.90;99.90;;;;;;5051718;28;20293;-76
2021/12/03 08:15:16;;;;;;;;;;;-1.60;99.90;;;;;;5052068;28;19913;-76
2021/12/03 08:17:42;;;;;;;;;;;-1.10;99.90;;;;;;5052638;28;19916;-76
2021/12/03 08:20:08;;;;;;;;;;;-0.40;99.90;;;;;;5052389;28;19913;-76
2021/12/03 08:22:34;;;;;;;;;;;-0.20;99.90;;;;;;5052209;28;19920;-76
2021/12/03 08:25:00;;;;;;;;;;;-0.20;99.90;;;;;;5051843;28;19983;-76
2021/12/03 08:27:25;;;;;;;;;;;0.10;99.90;;;;;;5052193;28;19917;-76
2021/12/03 08:29:51;;;;;;;;;;;0.20;99.90;;;;;;5049290;28;19909;-76
2021/12/03 08:32:17;;;;;;;;;;;0.20;99.90;;;;;;5051639;28;19913;-76
2021/12/03 08:34:42;;;;;;;;;;;0.70;99.90;;;;;;5051557;28;19975;-76
2021/12/03 08:37:09;;;;;;;;;;;0.80;99.90;;;;;;5051641;28;20439;-76
2021/12/03 08:39:35;;;;;;;;;;;1.10;99.90;;;;;;5051244;28;19909;-76
2021/12/03 08:42:01;;;;;;;;;;;1.40;99.90;;;;;;5047238;28;19951;-76
2021/12/03 08:44:26;;;;;;;;;;;2.00;99.90;;;;;;5051100;28;19909;-76
2021/12/03 08:47:02;;;;;;;;;;;2.00;99.90;;;;;;5049031;28;19962;-76
2021/12/03 08:49:30;;;;;;;;;;;2.30;99.90;;;;;;5046876;28;19913;-76
2021/12/03 08:57:16;;;;;;;;;;;4.20;99.90;;;;;;5051314;28;19931;-76
2021/12/03 08:59:42;;;;;;;;;;;5.10;99.90;;;;;;5051220;28;19999;-76
2021/12/03 09:02:07;;;;;;;;;;;5.40;99.90;;;;;;5041019;28;20035;-76
2021/12/03 09:04:33;;;;;;;;;;;5.90;99.90;;;;;;5048471;28;20007;-77
2021/12/03 09:06:59;;;;;;;;;;;6.30;99.90;;;;;;5051111;28;20276;-79
2021/12/03 09:09:25;;;;;;;;;;;6.20;99.90;;;;;;5051122;28;19954;-76
2021/12/03 09:11:51;;;;;;;;;;;6.10;99.90;;;;;;5051200;28;20285;-76
2021/12/03 09:14:24;;;;;;;;;;;6.50;99.90;;;;;;5049281;28;19920;-77
2021/12/03 09:16:58;;;;;;;;;;;5.90;99.90;;;;;;5052848;28;20357;-77
2021/12/03 09:19:31;;;;;;;;;;;7.10;99.90;;;;;;5043263;28;19919;-77
2021/12/03 09:21:56;;;;;;;;;;;6.50;99.60;;;;;;5051118;28;19909;-77
2021/12/03 09:24:30;;;;;;;;;;;7.10;98.70;;;;;;5055256;28;19916;-77
2021/12/03 09:26:55;;;;;;;;;;;6.70;98.50;;;;;;5054937;28;19924;-77
2021/12/03 09:29:28;;;;;;;;;;;6.20;98.50;;;;;;5048593;28;19909;-77
2021/12/03 09:31:53;;;;;;;;;;;5.80;99.90;;;;;;5052562;28;20414;-77
2021/12/03 09:34:19;;;;;;;;;;;5.60;99.90;;;;;;5054797;28;19964;-76
2021/12/03 09:36:45;;;;;;;;;;;5.80;99.90;;;;;;5055382;28;19913;-76
2021/12/03 09:39:20;;;;;;;;;;;3.80;99.90;;;;;;5055028;28;20371;-77
2021/12/03 09:41:47;;;;;;;;;;;2.60;99.90;;;;;;5054693;28;19909;-77
2021/12/03 09:44:12;;;;;;;;;;;2.30;99.90;;;;;;5054228;28;20332;-77
2021/12/03 09:46:38;;;;;;;;;;;3.80;99.90;;;;;;5054828;28;19913;-77
2021/12/03 09:51:47;;;;;;;;;;;6.60;99.90;;;;;;5048065;28;19909;-77
2021/12/03 09:57:03;;;;;;;;;;;9.10;96.30;;;;;;5057698;28;20431;-77
2021/12/03 10:15:23;;;;;;;;;;;9.00;92.30;;;;;;5049715;28;19916;-77
2021/12/03 10:34:07;;;;;;;;;;;4.40;99.90;;;;;;5054083;28;20407;-77
2021/12/03 10:42:01;;;;;;;;;;;2.90;99.90;;;;;;5054075;28;19909;-77
2021/12/03 10:47:26;;;;;;;;;;;2.40;99.90;;;;;;5049909;28;20388;-77
2021/12/03 10:50:03;;;;;;;;;;;1.90;99.90;;;;;;5050088;28;19962;-77
2021/12/03 10:52:36;;;;;;;;;;;2.10;99.90;;;;;;5053437;28;19908;-76
2021/12/03 10:56:03;;;;;;;;;;;2.00;99.90;;;;;;5052440;28;20006;-77
2021/12/03 11:31:52;;;;;;;;;;;1.40;99.90;;;;;;5045911;28;20420;-77
2021/12/03 12:02:17;;;;;;;;;;;1.70;99.90;;;;;;5053886;28;19924;-77
2021/12/03 12:16:26;;;;;;;;;;;1.70;99.90;;;;;;5055647;28;19974;-77
2021/12/03 13:18:44;;;;;;;;;;;1.30;99.90;;;;;;5057489;28;19909;-77
2021/12/03 14:08:25;;;;;;;;;;;1.00;99.90;;;;;;5054624;28;20003;-77
2021/12/03 14:55:53;;;;;;;;;;;1.00;99.90;;;;;;5055609;28;19909;-78
2021/12/03 14:58:33;;;;;;;;;;;1.00;99.90;;;;;;5056101;28;19909;-76
2021/12/03 15:01:08;;;;;;;;;;;1.00;99.90;;;;;;5049753;28;19940;-77
2021/12/03 15:06:30;;;;;;;;;;;0.90;99.90;;;;;;5042228;28;19909;-76
2021/12/03 15:09:18;;;;;;;;;;;0.90;99.90;;;;;;5048623;28;19958;-76
2021/12/03 15:15:03;;;;;;;;;;;0.70;99.90;;;;;;5047809;28;19939;-76
2021/12/03 15:23:02;;;;;;;;;;;0.30;99.90;;;;;;5052750;28;20415;-76
2021/12/03 15:30:39;;;;;;;;;;;0.30;99.90;;;;;;5053416;28;19909;-77
2021/12/03 15:33:21;;;;;;;;;;;0.20;99.90;;;;;;5052415;28;19909;-77
2021/12/03 16:13:17;;;;;;;;;;;-0.20;99.90;;;;;;5050086;28;20103;-76
2021/12/03 16:24:46;;;;;;;;;;;-0.40;99.90;;;;;;5045616;28;19984;-76
2021/12/03 16:49:13;;;;;;;;;;;0.10;99.90;;;;;;5051335;28;19995;-76
2021/12/03 16:53:35;;;;;;;;;;;-0.10;99.90;;;;;;5049377;28;20248;-76
2021/12/03 16:56:08;;;;;;;;;;;0.00;99.90;;;;;;5050978;28;19913;-76
2021/12/03 16:58:35;;;;;;;;;;;0.20;99.90;;;;;;5051433;28;19916;-76
2021/12/03 17:01:06;;;;;;;;;;;0.30;99.90;;;;;;5048308;28;19909;-76
2021/12/03 17:03:44;;;;;;;;;;;0.40;99.90;;;;;;5044398;28;20258;-77
2021/12/03 17:09:05;;;;;;;;;;;0.50;99.90;;;;;;5046758;28;19909;-76
2021/12/03 17:31:18;;;;;;;;;;;0.50;99.90;;;;;;5008274;28;19913;-76
2021/12/03 17:59:52;;;;;;;;;;;0.20;99.90;;;;;;5054141;28;19967;-77
2021/12/03 18:02:26;;;;;;;;;;;0.10;99.90;;;;;;5043489;28;20312;-76
2021/12/03 18:55:39;;;;;;;;;;;0.60;99.90;;;;;;5053036;28;19923;-76
2021/12/03 18:58:07;;;;;;;;;;;0.70;99.90;;;;;;5052869;28;19932;-76
2021/12/03 19:00:35;;;;;;;;;;;0.70;99.90;;;;;;5048242;28;20374;-76
2021/12/03 19:03:05;;;;;;;;;;;0.60;99.90;;;;;;5050615;28;19977;-76
2021/12/03 19:06:01;;;;;;;;;;;0.60;99.90;;;;;;5051492;28;19909;-77
2021/12/03 19:08:35;;;;;;;;;;;0.60;99.90;;;;;;5052789;28;19909;-76
2021/12/03 19:11:06;;;;;;;;;;;0.70;99.90;;;;;;5052583;28;20317;-76
2021/12/03 19:13:37;;;;;;;;;;;0.70;99.90;;;;;;5044972;28;19909;-77
2021/12/03 19:16:04;;;;;;;;;;;0.60;99.90;;;;;;5050474;28;19920;-76
2021/12/03 19:18:30;;;;;;;;;;;0.70;99.90;;;;;;5052570;28;19908;-77
2021/12/03 19:20:57;;;;;;;;;;;0.70;99.90;;;;;;5047943;28;19917;-76
2021/12/03 19:23:22;;;;;;;;;;;0.80;99.90;;;;;;5050025;28;19963;-76
2021/12/03 19:25:49;;;;;;;;;;;0.90;99.90;;;;;;5052730;28;19917;-76
2021/12/03 19:28:14;;;;;;;;;;;0.90;99.90;;;;;;5051264;28;20290;-76
2021/12/03 19:30:40;;;;;;;;;;;0.90;99.90;;;;;;5052690;28;19923;-76
2021/12/03 19:33:06;;;;;;;;;;;0.90;99.90;;;;;;5052377;28;19916;-76
2021/12/03 19:35:32;;;;;;;;;;;0.80;99.90;;;;;;5052643;28;19917;-76
2021/12/03 19:38:01;;;;;;;;;;;0.80;99.90;;;;;;5052324;28;19923;-76
2021/12/03 19:40:32;;;;;;;;;;;0.80;99.90;;;;;;5052429;28;19966;-76
2021/12/03 19:43:03;;;;;;;;;;;0.90;99.90;;;;;;5052271;28;19908;-76
2021/12/03 19:45:33;;;;;;;;;;;0.80;99.90;;;;;;5052516;28;19909;-76
2021/12/03 19:48:03;;;;;;;;;;;0.90;99.90;;;;;;5052428;28;20011;-76
2021/12/03 19:53:02;;;;;;;;;;;1.00;99.90;;;;;;5044178;28;19913;-76
2021/12/03 19:55:28;;;;;;;;;;;0.90;99.90;;;;;;5052130;28;19917;-76
2021/12/03 19:57:53;;;;;;;;;;;0.90;99.90;;;;;;5051945;28;19909;-76
2021/12/03 20:00:23;;;;;;;;;;;0.80;99.90;;;;;;5052043;28;19908;-76
2021/12/03 20:02:48;;;;;;;;;;;0.80;99.90;;;;;;5042840;28;19917;-76
2021/12/03 20:05:14;;;;;;;;;;;0.70;99.90;;;;;;5049752;28;20318;-76
2021/12/03 20:07:39;;;;;;;;;;;0.80;99.90;;;;;;5050321;28;20266;-76
2021/12/03 20:10:10;;;;;;;;;;;0.80;99.90;;;;;;5051877;28;19955;-76
2021/12/03 20:12:36;;;;;;;;;;;0.70;99.90;;;;;;5051806;28;19916;-77
2021/12/03 20:15:06;;;;;;;;;;;0.70;99.90;;;;;;5051251;28;19913;-77
2021/12/03 20:17:34;;;;;;;;;;;0.80;99.90;;;;;;5051652;28;19916;-78
2021/12/03 20:20:02;;;;;;;;;;;0.80;99.90;;;;;;5047948;28;20324;-77
2021/12/03 20:30:59;;;;;;;;;;;0.80;99.90;;;;;;5051241;28;20378;-76
2021/12/03 20:38:12;;;;;;;;;;;0.60;99.90;;;;;;5051458;28;19908;-77
2021/12/03 20:40:37;;;;;;;;;;;0.60;99.90;;;;;;5051383;28;20043;-77
2021/12/03 20:48:25;;;;;;;;;;;0.70;99.90;;;;;;5051174;28;19909;-76
2021/12/03 20:53:46;;;;;;;;;;;0.80;99.90;;;;;;5038886;28;19950;-77
2021/12/03 21:09:47;;;;;;;;;;;1.00;99.90;;;;;;5051189;28;19915;-77
2021/12/03 21:12:22;;;;;;;;;;;1.00;99.90;;;;;;5052234;28;19951;-77
2021/12/03 21:15:34;;;;;;;;;;;1.10;99.90;;;;;;5054930;28;20288;-77
2021/12/03 21:20:31;;;;;;;;;;;1.10;99.90;;;;;;5051849;28;20255;-77
2021/12/03 21:23:05;;;;;;;;;;;1.00;99.90;;;;;;5055004;28;20365;-77
2021/12/03 21:25:35;;;;;;;;;;;1.00;99.90;;;;;;5055284;28;19908;-77
2021/12/03 21:28:06;;;;;;;;;;;1.10;99.90;;;;;;5038916;28;20373;-77
2021/12/03 21:30:43;;;;;;;;;;;1.10;99.90;;;;;;5054767;28;20419;-77
2021/12/03 21:41:20;;;;;;;;;;;1.20;99.90;;;;;;5054360;28;20282;-78
2021/12/03 21:43:47;;;;;;;;;;;1.20;99.90;;;;;;5054367;28;20003;-78
2021/12/03 21:46:13;;;;;;;;;;;1.20;99.90;;;;;;5055371;28;19978;-77
2021/12/03 21:48:38;;;;;;;;;;;1.10;99.90;;;;;;5054814;28;19920;-78
2021/12/03 21:51:05;;;;;;;;;;;1.20;99.90;;;;;;5052340;28;20366;-77
2021/12/03 21:53:30;;;;;;;;;;;1.20;99.90;;;;;;5053420;28;19909;-77
2021/12/03 21:55:56;;;;;;;;;;;1.30;99.90;;;;;;5053910;28;19916;-77
2021/12/03 21:58:21;;;;;;;;;;;1.20;99.90;;;;;;5054836;28;19909;-77
2021/12/03 22:00:48;;;;;;;;;;;1.20;99.90;;;;;;5056063;28;19999;-79
2021/12/03 22:03:13;;;;;;;;;;;1.20;99.90;;;;;;5054699;28;20264;-77
2021/12/03 22:05:39;;;;;;;;;;;1.30;99.90;;;;;;5053713;28;19908;-78
2021/12/03 22:08:09;;;;;;;;;;;1.20;99.90;;;;;;5049848;28;19957;-76
2021/12/03 22:10:35;;;;;;;;;;;1.30;99.90;;;;;;5053504;28;19909;-77
2021/12/03 22:13:01;;;;;;;;;;;1.20;99.90;;;;;;5053281;28;20170;-77
2021/12/03 22:15:26;;;;;;;;;;;1.20;99.90;;;;;;5053687;28;19919;-77
2021/12/03 22:17:52;;;;;;;;;;;1.20;99.90;;;;;;5053243;28;19995;-77
2021/12/03 22:20:17;;;;;;;;;;;1.30;99.90;;;;;;5051809;28;20396;-76
2021/12/03 22:22:43;;;;;;;;;;;1.20;99.90;;;;;;5052291;28;20013;-77
2021/12/03 22:25:09;;;;;;;;;;;1.20;99.90;;;;;;5052620;28;20273;-77
2021/12/03 22:27:34;;;;;;;;;;;1.10;99.90;;;;;;5051862;28;20353;-77
2021/12/03 22:30:00;;;;;;;;;;;1.10;99.90;;;;;;5052472;28;19912;-77
2021/12/03 22:32:25;;;;;;;;;;;1.10;99.90;;;;;;5052728;28;19916;-77
2021/12/03 22:34:51;;;;;;;;;;;1.20;99.90;;;;;;5052744;28;19917;-77
2021/12/03 22:37:16;;;;;;;;;;;1.10;99.90;;;;;;5052031;28;20373;-77
2021/12/03 22:39:42;;;;;;;;;;;1.10;99.90;;;;;;5053914;28;19908;-77
2021/12/03 22:42:08;;;;;;;;;;;1.20;99.90;;;;;;5052989;28;19923;-77
2021/12/03 22:44:33;;;;;;;;;;;1.10;99.90;;;;;;5041749;28;19955;-78
2021/12/03 22:49:35;;;;;;;;;;;1.20;99.90;;;;;;5046384;28;20382;-77
2021/12/03 22:52:18;;;;;;;;;;;1.30;99.90;;;;;;5046274;28;19932;-77
2021/12/03 22:54:44;;;;;;;;;;;1.20;99.90;;;;;;5045939;28;19912;-77